Аэропорт: Актобе. Актобе

ICAO: UATT

METAR:
2019/03/24 18:00
UATT 241800Z 16005MPS CAVOK 07/04 Q1015 R13/0///60 NOSIG RMK QFE741/0989
METAR:
2019/03/24 18:18
TAF UATT 241700Z 2418/2518 15006MPS 9999 BKN011 TX06/2418Z TN00/2515Z 
      TEMPO 2418/2503 3100 -RA BR OVC011 
     FM250300 18007MPS 3100 -SHSNRA BR BKN011CB 
      TEMPO 2503/2515 24011MPS